sensor_id;sensor_type;location;lat;lon;timestamp;P1;durP1;ratioP1;P2;durP2;ratioP2
82000;SDS011;71510;50.558;7.258;2023-07-22T00:00:06;11.73;;;8.05;;
82000;SDS011;71510;50.558;7.258;2023-07-22T00:02:35;18.77;;;9.53;;
82000;SDS011;71510;50.558;7.258;2023-07-22T00:05:02;13.18;;;8.48;;
82000;SDS011;71510;50.558;7.258;2023-07-22T00:07:30;16.00;;;8.88;;
82000;SDS011;71510;50.558;7.258;2023-07-22T00:09:57;12.18;;;8.75;;
82000;SDS011;71510;50.558;7.258;2023-07-22T00:12:25;12.23;;;8.88;;
82000;SDS011;71510;50.558;7.258;2023-07-22T00:14:52;12.68;;;8.25;;
82000;SDS011;71510;50.558;7.258;2023-07-22T00:17:19;14.83;;;9.18;;
82000;SDS011;71510;50.558;7.258;2023-07-22T00:19:48;11.10;;;8.98;;
82000;SDS011;71510;50.558;7.258;2023-07-22T00:22:15;14.18;;;8.95;;
82000;SDS011;71510;50.558;7.258;2023-07-22T00:24:43;13.10;;;9.65;;
82000;SDS011;71510;50.558;7.258;2023-07-22T00:27:10;10.32;;;8.25;;
82000;SDS011;71510;50.558;7.258;2023-07-22T00:29:37;10.28;;;9.28;;
82000;SDS011;71510;50.558;7.258;2023-07-22T00:32:05;12.18;;;8.18;;
82000;SDS011;71510;50.558;7.258;2023-07-22T00:34:33;16.30;;;9.75;;
82000;SDS011;71510;50.558;7.258;2023-07-22T00:37:00;12.07;;;8.03;;
82000;SDS011;71510;50.558;7.258;2023-07-22T00:39:28;13.53;;;8.00;;
82000;SDS011;71510;50.558;7.258;2023-07-22T00:41:55;9.60;;;7.83;;
82000;SDS011;71510;50.558;7.258;2023-07-22T00:44:22;12.95;;;8.70;;
82000;SDS011;71510;50.558;7.258;2023-07-22T00:46:50;13.00;;;8.08;;
82000;SDS011;71510;50.558;7.258;2023-07-22T00:49:19;12.73;;;9.03;;
82000;SDS011;71510;50.558;7.258;2023-07-22T00:51:46;13.50;;;7.87;;
82000;SDS011;71510;50.558;7.258;2023-07-22T00:54:13;13.13;;;8.30;;
82000;SDS011;71510;50.558;7.258;2023-07-22T00:56:41;12.33;;;9.58;;
82000;SDS011;71510;50.558;7.258;2023-07-22T00:59:10;12.35;;;9.13;;
82000;SDS011;71510;50.558;7.258;2023-07-22T01:01:38;14.03;;;9.15;;
82000;SDS011;71510;50.558;7.258;2023-07-22T01:04:05;13.22;;;9.15;;
82000;SDS011;71510;50.558;7.258;2023-07-22T01:06:34;14.68;;;9.93;;
82000;SDS011;71510;50.558;7.258;2023-07-22T01:09:01;12.18;;;8.40;;
82000;SDS011;71510;50.558;7.258;2023-07-22T01:11:29;11.10;;;8.85;;
82000;SDS011;71510;50.558;7.258;2023-07-22T01:13:56;16.60;;;9.20;;
82000;SDS011;71510;50.558;7.258;2023-07-22T01:16:26;15.50;;;8.73;;
82000;SDS011;71510;50.558;7.258;2023-07-22T01:18:54;15.15;;;9.78;;
82000;SDS011;71510;50.558;7.258;2023-07-22T01:21:22;14.45;;;9.68;;
82000;SDS011;71510;50.558;7.258;2023-07-22T01:23:50;10.03;;;8.98;;
82000;SDS011;71510;50.558;7.258;2023-07-22T01:26:17;12.93;;;9.35;;
82000;SDS011;71510;50.558;7.258;2023-07-22T01:28:45;13.08;;;9.33;;
82000;SDS011;71510;50.558;7.258;2023-07-22T01:31:12;13.70;;;8.93;;
82000;SDS011;71510;50.558;7.258;2023-07-22T01:33:39;14.35;;;9.83;;
82000;SDS011;71510;50.558;7.258;2023-07-22T01:36:07;12.58;;;8.65;;
82000;SDS011;71510;50.558;7.258;2023-07-22T01:38:34;12.30;;;8.58;;
82000;SDS011;71510;50.558;7.258;2023-07-22T01:41:02;10.93;;;8.25;;
82000;SDS011;71510;50.558;7.258;2023-07-22T01:43:29;15.00;;;9.73;;
82000;SDS011;71510;50.558;7.258;2023-07-22T01:45:56;18.32;;;9.53;;
82000;SDS011;71510;50.558;7.258;2023-07-22T01:48:23;18.05;;;9.23;;
82000;SDS011;71510;50.558;7.258;2023-07-22T01:50:51;11.15;;;8.68;;
82000;SDS011;71510;50.558;7.258;2023-07-22T01:53:18;14.20;;;9.20;;
82000;SDS011;71510;50.558;7.258;2023-07-22T01:55:46;10.93;;;8.08;;
82000;SDS011;71510;50.558;7.258;2023-07-22T01:58:14;9.50;;;8.48;;
82000;SDS011;71510;50.558;7.258;2023-07-22T02:00:41;11.78;;;8.18;;
82000;SDS011;71510;50.558;7.258;2023-07-22T02:03:08;9.93;;;8.53;;
82000;SDS011;71510;50.558;7.258;2023-07-22T02:05:36;11.95;;;8.50;;
82000;SDS011;71510;50.558;7.258;2023-07-22T02:08:03;10.95;;;7.83;;
82000;SDS011;71510;50.558;7.258;2023-07-22T02:10:30;10.78;;;7.75;;
82000;SDS011;71510;50.558;7.258;2023-07-22T02:12:58;12.43;;;8.35;;
82000;SDS011;71510;50.558;7.258;2023-07-22T02:15:25;8.05;;;7.10;;
82000;SDS011;71510;50.558;7.258;2023-07-22T02:17:52;10.68;;;8.75;;
82000;SDS011;71510;50.558;7.258;2023-07-22T02:20:21;12.75;;;8.48;;
82000;SDS011;71510;50.558;7.258;2023-07-22T02:22:48;13.90;;;9.13;;
82000;SDS011;71510;50.558;7.258;2023-07-22T02:25:16;13.78;;;8.60;;
82000;SDS011;71510;50.558;7.258;2023-07-22T02:27:43;11.65;;;8.63;;
82000;SDS011;71510;50.558;7.258;2023-07-22T02:30:10;12.20;;;8.58;;
82000;SDS011;71510;50.558;7.258;2023-07-22T02:32:41;11.53;;;7.87;;
82000;SDS011;71510;50.558;7.258;2023-07-22T02:35:08;11.13;;;7.63;;
82000;SDS011;71510;50.558;7.258;2023-07-22T02:37:36;10.65;;;7.42;;
82000;SDS011;71510;50.558;7.258;2023-07-22T02:40:04;13.80;;;7.45;;
82000;SDS011;71510;50.558;7.258;2023-07-22T02:42:34;11.50;;;8.75;;
82000;SDS011;71510;50.558;7.258;2023-07-22T02:45:02;10.40;;;8.55;;
82000;SDS011;71510;50.558;7.258;2023-07-22T02:47:32;13.85;;;8.25;;
82000;SDS011;71510;50.558;7.258;2023-07-22T02:50:00;10.80;;;8.58;;
82000;SDS011;71510;50.558;7.258;2023-07-22T02:52:28;13.85;;;9.48;;
82000;SDS011;71510;50.558;7.258;2023-07-22T02:55:05;11.53;;;9.08;;
82000;SDS011;71510;50.558;7.258;2023-07-22T02:57:33;11.78;;;8.30;;
82000;SDS011;71510;50.558;7.258;2023-07-22T03:00:01;13.85;;;9.03;;
82000;SDS011;71510;50.558;7.258;2023-07-22T03:02:29;13.28;;;8.53;;
82000;SDS011;71510;50.558;7.258;2023-07-22T03:04:57;11.33;;;8.03;;
82000;SDS011;71510;50.558;7.258;2023-07-22T03:07:24;17.82;;;8.50;;
82000;SDS011;71510;50.558;7.258;2023-07-22T03:09:53;10.13;;;8.23;;
82000;SDS011;71510;50.558;7.258;2023-07-22T03:12:20;14.00;;;8.58;;
82000;SDS011;71510;50.558;7.258;2023-07-22T03:14:48;15.00;;;8.53;;
82000;SDS011;71510;50.558;7.258;2023-07-22T03:17:17;18.42;;;10.00;;
82000;SDS011;71510;50.558;7.258;2023-07-22T03:19:44;12.00;;;7.70;;
82000;SDS011;71510;50.558;7.258;2023-07-22T03:22:15;11.22;;;8.03;;
82000;SDS011;71510;50.558;7.258;2023-07-22T03:24:48;16.40;;;9.48;;
82000;SDS011;71510;50.558;7.258;2023-07-22T03:27:15;15.78;;;9.30;;
82000;SDS011;71510;50.558;7.258;2023-07-22T03:29:43;13.68;;;9.88;;
82000;SDS011;71510;50.558;7.258;2023-07-22T03:32:11;10.15;;;8.58;;
82000;SDS011;71510;50.558;7.258;2023-07-22T03:34:38;16.17;;;8.80;;
82000;SDS011;71510;50.558;7.258;2023-07-22T03:37:05;12.82;;;7.83;;
82000;SDS011;71510;50.558;7.258;2023-07-22T03:39:33;13.53;;;9.50;;
82000;SDS011;71510;50.558;7.258;2023-07-22T03:42:00;13.28;;;9.75;;
82000;SDS011;71510;50.558;7.258;2023-07-22T03:44:27;10.13;;;7.62;;
82000;SDS011;71510;50.558;7.258;2023-07-22T03:46:55;11.50;;;8.45;;
82000;SDS011;71510;50.558;7.258;2023-07-22T03:49:22;9.65;;;7.95;;
82000;SDS011;71510;50.558;7.258;2023-07-22T03:51:50;12.73;;;8.05;;
82000;SDS011;71510;50.558;7.258;2023-07-22T03:54:17;16.05;;;9.18;;
82000;SDS011;71510;50.558;7.258;2023-07-22T03:56:44;11.68;;;8.98;;
82000;SDS011;71510;50.558;7.258;2023-07-22T03:59:12;12.58;;;8.90;;
82000;SDS011;71510;50.558;7.258;2023-07-22T04:01:39;14.83;;;8.63;;
82000;SDS011;71510;50.558;7.258;2023-07-22T04:04:06;11.57;;;8.65;;
82000;SDS011;71510;50.558;7.258;2023-07-22T04:06:34;11.95;;;8.40;;
82000;SDS011;71510;50.558;7.258;2023-07-22T04:09:01;14.87;;;8.90;;
82000;SDS011;71510;50.558;7.258;2023-07-22T04:11:29;15.10;;;9.18;;
82000;SDS011;71510;50.558;7.258;2023-07-22T04:13:56;16.37;;;9.55;;
82000;SDS011;71510;50.558;7.258;2023-07-22T04:16:23;16.07;;;8.80;;
82000;SDS011;71510;50.558;7.258;2023-07-22T04:18:51;12.03;;;8.75;;
82000;SDS011;71510;50.558;7.258;2023-07-22T04:21:18;15.32;;;9.65;;
82000;SDS011;71510;50.558;7.258;2023-07-22T04:23:46;16.77;;;8.73;;
82000;SDS011;71510;50.558;7.258;2023-07-22T04:26:15;15.30;;;9.35;;
82000;SDS011;71510;50.558;7.258;2023-07-22T04:28:42;12.55;;;9.00;;
82000;SDS011;71510;50.558;7.258;2023-07-22T04:31:10;16.60;;;9.10;;
82000;SDS011;71510;50.558;7.258;2023-07-22T04:33:37;14.05;;;8.05;;
82000;SDS011;71510;50.558;7.258;2023-07-22T04:36:04;12.88;;;8.98;;
82000;SDS011;71510;50.558;7.258;2023-07-22T04:38:33;12.95;;;8.13;;
82000;SDS011;71510;50.558;7.258;2023-07-22T04:41:02;8.55;;;7.58;;
82000;SDS011;71510;50.558;7.258;2023-07-22T04:43:30;10.40;;;8.25;;
82000;SDS011;71510;50.558;7.258;2023-07-22T04:45:57;13.85;;;8.70;;
82000;SDS011;71510;50.558;7.258;2023-07-22T04:48:25;9.15;;;8.08;;
82000;SDS011;71510;50.558;7.258;2023-07-22T04:50:52;13.13;;;8.33;;
82000;SDS011;71510;50.558;7.258;2023-07-22T04:53:20;11.40;;;8.08;;
82000;SDS011;71510;50.558;7.258;2023-07-22T04:55:48;10.18;;;8.00;;
82000;SDS011;71510;50.558;7.258;2023-07-22T04:58:16;14.30;;;8.30;;
82000;SDS011;71510;50.558;7.258;2023-07-22T05:00:43;12.00;;;8.15;;
82000;SDS011;71510;50.558;7.258;2023-07-22T05:03:10;15.93;;;8.78;;
82000;SDS011;71510;50.558;7.258;2023-07-22T05:05:37;9.65;;;8.33;;
82000;SDS011;71510;50.558;7.258;2023-07-22T05:08:05;9.65;;;8.08;;
82000;SDS011;71510;50.558;7.258;2023-07-22T05:10:34;11.83;;;9.75;;
82000;SDS011;71510;50.558;7.258;2023-07-22T05:13:01;10.03;;;9.00;;
82000;SDS011;71510;50.558;7.258;2023-07-22T05:15:28;17.35;;;10.08;;
82000;SDS011;71510;50.558;7.258;2023-07-22T05:17:56;12.90;;;9.00;;
82000;SDS011;71510;50.558;7.258;2023-07-22T05:20:23;14.58;;;9.45;;
82000;SDS011;71510;50.558;7.258;2023-07-22T05:22:50;14.90;;;10.32;;
82000;SDS011;71510;50.558;7.258;2023-07-22T05:25:18;15.32;;;9.95;;
82000;SDS011;71510;50.558;7.258;2023-07-22T05:27:45;14.07;;;10.23;;
82000;SDS011;71510;50.558;7.258;2023-07-22T05:30:13;17.17;;;10.85;;
82000;SDS011;71510;50.558;7.258;2023-07-22T05:32:40;12.82;;;10.65;;
82000;SDS011;71510;50.558;7.258;2023-07-22T05:35:07;21.20;;;15.45;;
82000;SDS011;71510;50.558;7.258;2023-07-22T05:37:35;16.35;;;14.50;;
82000;SDS011;71510;50.558;7.258;2023-07-22T05:40:02;24.60;;;15.43;;
82000;SDS011;71510;50.558;7.258;2023-07-22T05:42:30;19.12;;;13.98;;
82000;SDS011;71510;50.558;7.258;2023-07-22T05:44:57;22.07;;;15.58;;
82000;SDS011;71510;50.558;7.258;2023-07-22T05:47:25;21.17;;;13.48;;
82000;SDS011;71510;50.558;7.258;2023-07-22T05:49:52;17.10;;;13.75;;
82000;SDS011;71510;50.558;7.258;2023-07-22T05:52:19;18.55;;;14.28;;
82000;SDS011;71510;50.558;7.258;2023-07-22T05:54:47;19.75;;;15.70;;
82000;SDS011;71510;50.558;7.258;2023-07-22T05:57:14;20.23;;;14.73;;
82000;SDS011;71510;50.558;7.258;2023-07-22T05:59:41;21.50;;;15.05;;
82000;SDS011;71510;50.558;7.258;2023-07-22T06:02:09;18.25;;;14.83;;
82000;SDS011;71510;50.558;7.258;2023-07-22T06:04:36;23.12;;;16.25;;
82000;SDS011;71510;50.558;7.258;2023-07-22T06:07:05;25.57;;;16.12;;
82000;SDS011;71510;50.558;7.258;2023-07-22T06:09:32;22.15;;;15.60;;
82000;SDS011;71510;50.558;7.258;2023-07-22T06:12:00;20.88;;;16.93;;
82000;SDS011;71510;50.558;7.258;2023-07-22T06:14:27;19.00;;;15.70;;
82000;SDS011;71510;50.558;7.258;2023-07-22T06:16:54;26.27;;;19.45;;
82000;SDS011;71510;50.558;7.258;2023-07-22T06:19:21;20.80;;;17.02;;
82000;SDS011;71510;50.558;7.258;2023-07-22T06:21:50;17.82;;;15.23;;
82000;SDS011;71510;50.558;7.258;2023-07-22T06:24:17;16.42;;;13.43;;
82000;SDS011;71510;50.558;7.258;2023-07-22T06:26:44;21.97;;;16.65;;
82000;SDS011;71510;50.558;7.258;2023-07-22T06:29:12;18.23;;;14.55;;
82000;SDS011;71510;50.558;7.258;2023-07-22T06:31:39;18.10;;;15.63;;
82000;SDS011;71510;50.558;7.258;2023-07-22T06:34:06;17.67;;;13.65;;
82000;SDS011;71510;50.558;7.258;2023-07-22T06:36:33;16.95;;;13.28;;
82000;SDS011;71510;50.558;7.258;2023-07-22T06:39:01;19.10;;;13.78;;
82000;SDS011;71510;50.558;7.258;2023-07-22T06:41:28;20.08;;;15.63;;
82000;SDS011;71510;50.558;7.258;2023-07-22T06:43:55;24.95;;;20.40;;
82000;SDS011;71510;50.558;7.258;2023-07-22T06:46:23;19.77;;;14.90;;
82000;SDS011;71510;50.558;7.258;2023-07-22T06:48:50;24.82;;;16.07;;
82000;SDS011;71510;50.558;7.258;2023-07-22T06:51:17;17.80;;;14.55;;
82000;SDS011;71510;50.558;7.258;2023-07-22T06:53:45;18.12;;;12.68;;
82000;SDS011;71510;50.558;7.258;2023-07-22T06:56:12;12.68;;;11.40;;
82000;SDS011;71510;50.558;7.258;2023-07-22T06:58:39;13.20;;;11.80;;
82000;SDS011;71510;50.558;7.258;2023-07-22T07:01:07;12.07;;;10.70;;
82000;SDS011;71510;50.558;7.258;2023-07-22T07:03:34;18.52;;;11.18;;
82000;SDS011;71510;50.558;7.258;2023-07-22T07:06:01;14.10;;;10.23;;
82000;SDS011;71510;50.558;7.258;2023-07-22T07:08:28;15.38;;;10.45;;
82000;SDS011;71510;50.558;7.258;2023-07-22T07:10:58;17.55;;;10.05;;
82000;SDS011;71510;50.558;7.258;2023-07-22T07:13:26;25.30;;;11.80;;
82000;SDS011;71510;50.558;7.258;2023-07-22T07:15:54;78.50;;;16.55;;
82000;SDS011;71510;50.558;7.258;2023-07-22T07:18:21;15.00;;;9.10;;
82000;SDS011;71510;50.558;7.258;2023-07-22T07:20:48;11.50;;;9.18;;
82000;SDS011;71510;50.558;7.258;2023-07-22T07:23:17;14.43;;;9.25;;
82000;SDS011;71510;50.558;7.258;2023-07-22T07:25:44;13.55;;;8.78;;
82000;SDS011;71510;50.558;7.258;2023-07-22T07:28:12;11.05;;;8.78;;
82000;SDS011;71510;50.558;7.258;2023-07-22T07:30:40;30.60;;;10.15;;
82000;SDS011;71510;50.558;7.258;2023-07-22T07:33:07;22.85;;;8.80;;
82000;SDS011;71510;50.558;7.258;2023-07-22T07:35:35;12.50;;;8.60;;
82000;SDS011;71510;50.558;7.258;2023-07-22T07:38:02;8.15;;;7.33;;
82000;SDS011;71510;50.558;7.258;2023-07-22T07:40:30;10.63;;;7.58;;
82000;SDS011;71510;50.558;7.258;2023-07-22T07:42:58;10.65;;;7.58;;
82000;SDS011;71510;50.558;7.258;2023-07-22T07:45:26;11.08;;;8.05;;
82000;SDS011;71510;50.558;7.258;2023-07-22T07:47:53;7.95;;;6.87;;
82000;SDS011;71510;50.558;7.258;2023-07-22T07:50:20;7.95;;;7.20;;
82000;SDS011;71510;50.558;7.258;2023-07-22T07:52:47;9.00;;;7.08;;
82000;SDS011;71510;50.558;7.258;2023-07-22T07:55:15;7.40;;;6.67;;
82000;SDS011;71510;50.558;7.258;2023-07-22T07:57:42;9.78;;;6.42;;
82000;SDS011;71510;50.558;7.258;2023-07-22T08:00:09;7.97;;;6.17;;
82000;SDS011;71510;50.558;7.258;2023-07-22T08:02:37;11.50;;;6.42;;
82000;SDS011;71510;50.558;7.258;2023-07-22T08:05:04;11.43;;;6.72;;
82000;SDS011;71510;50.558;7.258;2023-07-22T08:07:32;11.33;;;6.20;;
82000;SDS011;71510;50.558;7.258;2023-07-22T08:09:59;8.35;;;5.95;;
82000;SDS011;71510;50.558;7.258;2023-07-22T08:12:27;11.25;;;6.05;;
82000;SDS011;71510;50.558;7.258;2023-07-22T08:14:54;7.95;;;6.25;;
82000;SDS011;71510;50.558;7.258;2023-07-22T08:17:22;7.85;;;5.53;;
82000;SDS011;71510;50.558;7.258;2023-07-22T08:19:49;11.08;;;6.30;;
82000;SDS011;71510;50.558;7.258;2023-07-22T08:22:17;18.77;;;5.95;;
82000;SDS011;71510;50.558;7.258;2023-07-22T08:24:44;18.27;;;7.62;;
82000;SDS011;71510;50.558;7.258;2023-07-22T08:27:11;7.80;;;6.10;;
82000;SDS011;71510;50.558;7.258;2023-07-22T08:29:39;10.10;;;6.45;;
82000;SDS011;71510;50.558;7.258;2023-07-22T08:32:06;8.30;;;6.55;;
82000;SDS011;71510;50.558;7.258;2023-07-22T08:34:33;7.12;;;5.42;;
82000;SDS011;71510;50.558;7.258;2023-07-22T08:37:01;19.62;;;6.53;;
82000;SDS011;71510;50.558;7.258;2023-07-22T08:39:28;7.28;;;5.65;;
82000;SDS011;71510;50.558;7.258;2023-07-22T08:41:55;7.70;;;5.60;;
82000;SDS011;71510;50.558;7.258;2023-07-22T08:44:23;6.28;;;5.67;;
82000;SDS011;71510;50.558;7.258;2023-07-22T08:46:53;10.80;;;5.53;;
82000;SDS011;71510;50.558;7.258;2023-07-22T08:49:21;11.12;;;5.45;;
82000;SDS011;71510;50.558;7.258;2023-07-22T08:51:48;7.03;;;5.20;;
82000;SDS011;71510;50.558;7.258;2023-07-22T08:54:16;8.13;;;4.90;;
82000;SDS011;71510;50.558;7.258;2023-07-22T08:56:43;8.35;;;5.05;;
82000;SDS011;71510;50.558;7.258;2023-07-22T08:59:11;6.87;;;5.62;;
82000;SDS011;71510;50.558;7.258;2023-07-22T09:01:40;7.28;;;5.12;;
82000;SDS011;71510;50.558;7.258;2023-07-22T09:04:07;8.25;;;5.00;;
82000;SDS011;71510;50.558;7.258;2023-07-22T09:06:35;12.10;;;5.40;;
82000;SDS011;71510;50.558;7.258;2023-07-22T09:09:03;6.28;;;4.78;;
82000;SDS011;71510;50.558;7.258;2023-07-22T09:11:32;8.48;;;5.53;;
82000;SDS011;71510;50.558;7.258;2023-07-22T09:13:59;5.87;;;4.97;;
82000;SDS011;71510;50.558;7.258;2023-07-22T09:16:27;7.45;;;5.65;;
82000;SDS011;71510;50.558;7.258;2023-07-22T09:18:57;5.85;;;5.30;;
82000;SDS011;71510;50.558;7.258;2023-07-22T09:21:24;5.45;;;4.37;;
82000;SDS011;71510;50.558;7.258;2023-07-22T09:23:51;6.70;;;4.60;;
82000;SDS011;71510;50.558;7.258;2023-07-22T09:26:19;5.78;;;4.85;;
82000;SDS011;71510;50.558;7.258;2023-07-22T09:28:55;7.15;;;4.10;;
82000;SDS011;71510;50.558;7.258;2023-07-22T09:31:20;6.95;;;4.30;;
82000;SDS011;71510;50.558;7.258;2023-07-22T09:33:47;9.25;;;4.58;;
82000;SDS011;71510;50.558;7.258;2023-07-22T09:36:15;4.33;;;3.92;;
82000;SDS011;71510;50.558;7.258;2023-07-22T09:38:42;6.35;;;4.10;;
82000;SDS011;71510;50.558;7.258;2023-07-22T09:41:09;7.17;;;2.95;;
82000;SDS011;71510;50.558;7.258;2023-07-22T09:43:37;3.95;;;3.33;;
82000;SDS011;71510;50.558;7.258;2023-07-22T09:46:12;5.05;;;3.83;;
82000;SDS011;71510;50.558;7.258;2023-07-22T09:48:44;4.90;;;4.15;;
82000;SDS011;71510;50.558;7.258;2023-07-22T09:51:17;5.53;;;3.40;;
82000;SDS011;71510;50.558;7.258;2023-07-22T09:53:37;6.40;;;3.00;;
82000;SDS011;71510;50.558;7.258;2023-07-22T09:56:04;3.65;;;3.12;;
82000;SDS011;71510;50.558;7.258;2023-07-22T09:58:31;4.80;;;2.67;;
82000;SDS011;71510;50.558;7.258;2023-07-22T10:00:59;2.95;;;2.40;;
82000;SDS011;71510;50.558;7.258;2023-07-22T10:03:29;2.40;;;2.20;;
82000;SDS011;71510;50.558;7.258;2023-07-22T10:05:57;2.83;;;2.27;;
82000;SDS011;71510;50.558;7.258;2023-07-22T10:08:25;2.60;;;2.40;;
82000;SDS011;71510;50.558;7.258;2023-07-22T10:10:53;3.98;;;2.30;;
82000;SDS011;71510;50.558;7.258;2023-07-22T10:13:22;9.15;;;3.08;;
82000;SDS011;71510;50.558;7.258;2023-07-22T10:15:51;2.60;;;2.40;;
82000;SDS011;71510;50.558;7.258;2023-07-22T10:18:18;3.47;;;2.45;;
82000;SDS011;71510;50.558;7.258;2023-07-22T10:20:47;3.10;;;2.80;;
82000;SDS011;71510;50.558;7.258;2023-07-22T10:23:15;3.08;;;2.75;;
82000;SDS011;71510;50.558;7.258;2023-07-22T10:25:43;5.72;;;2.83;;
82000;SDS011;71510;50.558;7.258;2023-07-22T10:28:11;5.30;;;2.70;;
82000;SDS011;71510;50.558;7.258;2023-07-22T10:30:39;4.03;;;2.67;;
82000;SDS011;71510;50.558;7.258;2023-07-22T10:33:07;2.12;;;1.92;;
82000;SDS011;71510;50.558;7.258;2023-07-22T10:35:39;5.20;;;2.30;;
82000;SDS011;71510;50.558;7.258;2023-07-22T10:38:12;2.72;;;2.52;;
82000;SDS011;71510;50.558;7.258;2023-07-22T10:40:46;2.87;;;2.40;;
82000;SDS011;71510;50.558;7.258;2023-07-22T10:43:17;4.28;;;2.35;;
82000;SDS011;71510;50.558;7.258;2023-07-22T10:45:51;2.20;;;2.00;;
82000;SDS011;71510;50.558;7.258;2023-07-22T10:48:19;3.35;;;2.30;;
82000;SDS011;71510;50.558;7.258;2023-07-22T10:50:47;2.30;;;2.10;;
82000;SDS011;71510;50.558;7.258;2023-07-22T10:56:10;3.08;;;2.12;;
82000;SDS011;71510;50.558;7.258;2023-07-22T11:12:03;3.55;;;2.33;;
82000;SDS011;71510;50.558;7.258;2023-07-22T11:14:32;2.95;;;2.40;;
82000;SDS011;71510;50.558;7.258;2023-07-22T11:17:01;2.75;;;2.55;;
82000;SDS011;71510;50.558;7.258;2023-07-22T11:21:56;2.05;;;1.90;;
82000;SDS011;71510;50.558;7.258;2023-07-22T11:24:24;2.62;;;2.42;;
82000;SDS011;71510;50.558;7.258;2023-07-22T11:26:52;2.58;;;2.27;;
82000;SDS011;71510;50.558;7.258;2023-07-22T11:29:19;2.30;;;2.10;;
82000;SDS011;71510;50.558;7.258;2023-07-22T11:31:47;2.80;;;2.60;;
82000;SDS011;71510;50.558;7.258;2023-07-22T11:34:16;2.60;;;2.40;;
82000;SDS011;71510;50.558;7.258;2023-07-22T11:36:44;4.67;;;2.08;;
82000;SDS011;71510;50.558;7.258;2023-07-22T11:39:12;3.00;;;2.60;;
82000;SDS011;71510;50.558;7.258;2023-07-22T11:41:40;3.98;;;2.50;;
82000;SDS011;71510;50.558;7.258;2023-07-22T11:44:11;2.17;;;1.98;;
82000;SDS011;71510;50.558;7.258;2023-07-22T11:46:49;3.98;;;2.47;;
82000;SDS011;71510;50.558;7.258;2023-07-22T11:51:59;3.75;;;2.92;;
82000;SDS011;71510;50.558;7.258;2023-07-22T11:54:27;2.95;;;2.45;;
82000;SDS011;71510;50.558;7.258;2023-07-22T11:56:55;2.83;;;2.40;;
82000;SDS011;71510;50.558;7.258;2023-07-22T11:59:35;2.80;;;2.52;;
82000;SDS011;71510;50.558;7.258;2023-07-22T12:02:02;2.90;;;2.60;;
82000;SDS011;71510;50.558;7.258;2023-07-22T12:04:32;2.77;;;2.58;;
82000;SDS011;71510;50.558;7.258;2023-07-22T12:07:01;2.58;;;2.20;;
82000;SDS011;71510;50.558;7.258;2023-07-22T12:09:30;2.42;;;2.25;;
82000;SDS011;71510;50.558;7.258;2023-07-22T12:11:58;4.67;;;2.70;;
82000;SDS011;71510;50.558;7.258;2023-07-22T12:14:32;3.02;;;2.80;;
82000;SDS011;71510;50.558;7.258;2023-07-22T12:17:02;5.70;;;2.52;;
82000;SDS011;71510;50.558;7.258;2023-07-22T12:19:29;4.28;;;3.00;;
82000;SDS011;71510;50.558;7.258;2023-07-22T12:21:57;3.17;;;2.75;;
82000;SDS011;71510;50.558;7.258;2023-07-22T12:24:24;2.80;;;2.60;;
82000;SDS011;71510;50.558;7.258;2023-07-22T12:26:51;3.27;;;2.98;;
82000;SDS011;71510;50.558;7.258;2023-07-22T12:29:19;2.65;;;2.27;;
82000;SDS011;71510;50.558;7.258;2023-07-22T12:31:46;6.00;;;2.52;;
82000;SDS011;71510;50.558;7.258;2023-07-22T12:34:13;2.67;;;2.47;;
82000;SDS011;71510;50.558;7.258;2023-07-22T12:36:41;2.80;;;2.50;;
82000;SDS011;71510;50.558;7.258;2023-07-22T12:39:08;2.92;;;2.72;;
82000;SDS011;71510;50.558;7.258;2023-07-22T12:41:35;3.62;;;2.83;;
82000;SDS011;71510;50.558;7.258;2023-07-22T12:44:02;3.37;;;2.50;;
82000;SDS011;71510;50.558;7.258;2023-07-22T12:46:30;3.17;;;2.87;;
82000;SDS011;71510;50.558;7.258;2023-07-22T12:48:57;5.33;;;3.20;;
82000;SDS011;71510;50.558;7.258;2023-07-22T12:51:24;2.58;;;2.37;;
82000;SDS011;71510;50.558;7.258;2023-07-22T12:53:52;5.72;;;2.98;;
82000;SDS011;71510;50.558;7.258;2023-07-22T12:56:19;2.80;;;2.60;;
82000;SDS011;71510;50.558;7.258;2023-07-22T12:58:46;2.72;;;2.50;;
82000;SDS011;71510;50.558;7.258;2023-07-22T13:01:14;4.25;;;2.60;;
82000;SDS011;71510;50.558;7.258;2023-07-22T13:03:41;2.87;;;2.55;;
82000;SDS011;71510;50.558;7.258;2023-07-22T13:06:08;3.45;;;2.58;;
82000;SDS011;71510;50.558;7.258;2023-07-22T13:08:35;3.00;;;2.70;;
82000;SDS011;71510;50.558;7.258;2023-07-22T13:11:03;3.33;;;2.92;;
82000;SDS011;71510;50.558;7.258;2023-07-22T13:13:30;2.98;;;2.67;;
82000;SDS011;71510;50.558;7.258;2023-07-22T13:15:57;4.40;;;2.95;;
82000;SDS011;71510;50.558;7.258;2023-07-22T13:18:25;3.27;;;2.90;;
82000;SDS011;71510;50.558;7.258;2023-07-22T13:20:52;4.78;;;2.62;;
82000;SDS011;71510;50.558;7.258;2023-07-22T13:23:19;3.55;;;2.80;;
82000;SDS011;71510;50.558;7.258;2023-07-22T13:25:47;3.87;;;3.00;;
82000;SDS011;71510;50.558;7.258;2023-07-22T13:28:14;4.85;;;2.67;;
82000;SDS011;71510;50.558;7.258;2023-07-22T13:30:41;4.08;;;2.37;;
82000;SDS011;71510;50.558;7.258;2023-07-22T13:33:09;2.90;;;2.62;;
82000;SDS011;71510;50.558;7.258;2023-07-22T13:35:36;2.98;;;2.77;;
82000;SDS011;71510;50.558;7.258;2023-07-22T13:38:03;3.10;;;2.87;;
82000;SDS011;71510;50.558;7.258;2023-07-22T13:40:30;4.10;;;3.02;;
82000;SDS011;71510;50.558;7.258;2023-07-22T13:42:58;4.60;;;2.92;;
82000;SDS011;71510;50.558;7.258;2023-07-22T13:45:25;7.65;;;2.95;;
82000;SDS011;71510;50.558;7.258;2023-07-22T13:47:53;5.42;;;2.98;;
82000;SDS011;71510;50.558;7.258;2023-07-22T13:50:20;3.85;;;2.98;;
82000;SDS011;71510;50.558;7.258;2023-07-22T13:52:48;3.98;;;3.08;;
82000;SDS011;71510;50.558;7.258;2023-07-22T13:55:16;3.50;;;3.20;;
82000;SDS011;71510;50.558;7.258;2023-07-22T13:57:44;3.15;;;2.85;;
82000;SDS011;71510;50.558;7.258;2023-07-22T14:00:11;7.97;;;3.30;;
82000;SDS011;71510;50.558;7.258;2023-07-22T14:02:40;4.67;;;3.27;;
82000;SDS011;71510;50.558;7.258;2023-07-22T14:05:08;5.42;;;3.20;;
82000;SDS011;71510;50.558;7.258;2023-07-22T14:07:36;4.00;;;3.37;;
82000;SDS011;71510;50.558;7.258;2023-07-22T14:10:04;3.65;;;2.90;;
82000;SDS011;71510;50.558;7.258;2023-07-22T14:12:31;4.33;;;3.12;;
82000;SDS011;71510;50.558;7.258;2023-07-22T14:14:59;3.90;;;3.50;;
82000;SDS011;71510;50.558;7.258;2023-07-22T14:17:26;3.60;;;3.22;;
82000;SDS011;71510;50.558;7.258;2023-07-22T14:19:53;3.40;;;2.83;;
82000;SDS011;71510;50.558;7.258;2023-07-22T14:22:20;3.95;;;3.22;;
82000;SDS011;71510;50.558;7.258;2023-07-22T14:24:48;4.97;;;3.60;;
82000;SDS011;71510;50.558;7.258;2023-07-22T14:27:15;6.95;;;3.52;;
82000;SDS011;71510;50.558;7.258;2023-07-22T14:29:42;5.03;;;2.92;;
82000;SDS011;71510;50.558;7.258;2023-07-22T14:32:10;4.00;;;3.62;;
82000;SDS011;71510;50.558;7.258;2023-07-22T14:34:37;6.47;;;3.15;;
82000;SDS011;71510;50.558;7.258;2023-07-22T14:37:05;4.85;;;3.83;;
82000;SDS011;71510;50.558;7.258;2023-07-22T14:39:32;3.42;;;3.12;;
82000;SDS011;71510;50.558;7.258;2023-07-22T14:42:00;4.67;;;3.37;;
82000;SDS011;71510;50.558;7.258;2023-07-22T14:44:27;4.17;;;3.20;;
82000;SDS011;71510;50.558;7.258;2023-07-22T14:46:55;4.12;;;3.40;;
82000;SDS011;71510;50.558;7.258;2023-07-22T14:49:22;4.03;;;3.67;;
82000;SDS011;71510;50.558;7.258;2023-07-22T14:51:49;4.15;;;3.30;;
82000;SDS011;71510;50.558;7.258;2023-07-22T14:54:17;4.15;;;3.70;;
82000;SDS011;71510;50.558;7.258;2023-07-22T14:56:44;4.17;;;3.77;;
82000;SDS011;71510;50.558;7.258;2023-07-22T14:59:13;4.03;;;3.70;;
82000;SDS011;71510;50.558;7.258;2023-07-22T15:01:40;4.40;;;3.50;;